Aviation Digital Data Service (ADDS)

Output produced by METARs form (1031 UTC 28 July 2021)
found at http://aviationweather.gov/metar/data/
 
METAR text: KJOT 281015Z AUTO 00000KT 10SM RA SCT012 BKN075 OVC090 21/20 A3006 RMK AO2 P0002 T02100198
Conditions at: KJOT (JOLIET , IL, US) observed 1015 UTC 28 July 2021
Temperature: 21.0°C (70°F)
Dewpoint: 19.8°C (68°F) [RH = 93%]
Pressure (altimeter): 30.06 inches Hg (1018.0 mb)
Winds: calm
Visibility: 10 or more miles (16+ km)
Ceiling: 7500 feet AGL
Clouds: scattered clouds at 1200 feet AGL
broken clouds at 7500 feet AGL
overcast cloud deck at 9000 feet AGL
Weather: RA  (moderate rain)